sensor_id;sensor_type;location;lat;lon;timestamp;P1;durP1;ratioP1;P2;durP2;ratioP2
79284;SDS011;68734;50.452;11.636;2023-04-25T00:00:17;5.28;;;3.67;;
79284;SDS011;68734;50.452;11.636;2023-04-25T00:02:44;5.25;;;3.72;;
79284;SDS011;68734;50.452;11.636;2023-04-25T00:05:11;6.70;;;3.67;;
79284;SDS011;68734;50.452;11.636;2023-04-25T00:07:40;5.05;;;3.55;;
79284;SDS011;68734;50.452;11.636;2023-04-25T00:10:07;5.43;;;3.97;;
79284;SDS011;68734;50.452;11.636;2023-04-25T00:12:33;8.38;;;3.25;;
79284;SDS011;68734;50.452;11.636;2023-04-25T00:14:59;4.95;;;3.63;;
79284;SDS011;68734;50.452;11.636;2023-04-25T00:17:24;4.38;;;3.53;;
79284;SDS011;68734;50.452;11.636;2023-04-25T00:19:50;5.50;;;3.83;;
79284;SDS011;68734;50.452;11.636;2023-04-25T00:22:16;4.70;;;3.35;;
79284;SDS011;68734;50.452;11.636;2023-04-25T00:24:42;5.90;;;4.03;;
79284;SDS011;68734;50.452;11.636;2023-04-25T00:27:10;5.35;;;3.80;;
79284;SDS011;68734;50.452;11.636;2023-04-25T00:29:35;6.25;;;4.07;;
79284;SDS011;68734;50.452;11.636;2023-04-25T00:32:01;7.13;;;4.20;;
79284;SDS011;68734;50.452;11.636;2023-04-25T00:34:29;6.32;;;4.35;;
79284;SDS011;68734;50.452;11.636;2023-04-25T00:36:57;5.68;;;3.95;;
79284;SDS011;68734;50.452;11.636;2023-04-25T00:39:22;6.35;;;4.03;;
79284;SDS011;68734;50.452;11.636;2023-04-25T00:41:48;8.07;;;4.60;;
79284;SDS011;68734;50.452;11.636;2023-04-25T00:44:13;7.30;;;4.28;;
79284;SDS011;68734;50.452;11.636;2023-04-25T00:46:42;5.93;;;3.90;;
79284;SDS011;68734;50.452;11.636;2023-04-25T00:49:07;4.57;;;3.65;;
79284;SDS011;68734;50.452;11.636;2023-04-25T00:51:33;5.22;;;3.90;;
79284;SDS011;68734;50.452;11.636;2023-04-25T00:53:59;6.85;;;4.53;;
79284;SDS011;68734;50.452;11.636;2023-04-25T00:56:27;5.63;;;4.07;;
79284;SDS011;68734;50.452;11.636;2023-04-25T00:58:53;5.32;;;3.95;;
79284;SDS011;68734;50.452;11.636;2023-04-25T01:01:21;5.22;;;4.13;;
79284;SDS011;68734;50.452;11.636;2023-04-25T01:03:47;5.43;;;3.97;;
79284;SDS011;68734;50.452;11.636;2023-04-25T01:06:18;5.82;;;4.22;;
79284;SDS011;68734;50.452;11.636;2023-04-25T01:08:44;5.53;;;4.18;;
79284;SDS011;68734;50.452;11.636;2023-04-25T01:11:09;7.18;;;3.90;;
79284;SDS011;68734;50.452;11.636;2023-04-25T01:13:35;6.55;;;4.35;;
79284;SDS011;68734;50.452;11.636;2023-04-25T01:16:02;5.20;;;3.80;;
79284;SDS011;68734;50.452;11.636;2023-04-25T01:18:28;5.85;;;4.10;;
79284;SDS011;68734;50.452;11.636;2023-04-25T01:20:56;6.68;;;4.45;;
79284;SDS011;68734;50.452;11.636;2023-04-25T01:23:31;7.18;;;4.50;;
79284;SDS011;68734;50.452;11.636;2023-04-25T01:25:58;7.13;;;4.28;;
79284;SDS011;68734;50.452;11.636;2023-04-25T01:28:24;5.32;;;4.22;;
79284;SDS011;68734;50.452;11.636;2023-04-25T01:30:49;5.63;;;3.78;;
79284;SDS011;68734;50.452;11.636;2023-04-25T01:33:17;6.13;;;3.95;;
79284;SDS011;68734;50.452;11.636;2023-04-25T01:35:48;5.57;;;4.07;;
79284;SDS011;68734;50.452;11.636;2023-04-25T01:38:13;9.40;;;4.90;;
79284;SDS011;68734;50.452;11.636;2023-04-25T01:40:41;7.15;;;4.45;;
79284;SDS011;68734;50.452;11.636;2023-04-25T01:43:10;7.72;;;4.00;;
79284;SDS011;68734;50.452;11.636;2023-04-25T01:45:37;5.25;;;4.28;;
79284;SDS011;68734;50.452;11.636;2023-04-25T01:48:06;5.25;;;3.63;;
79284;SDS011;68734;50.452;11.636;2023-04-25T01:50:35;5.88;;;3.85;;
79284;SDS011;68734;50.452;11.636;2023-04-25T01:53:00;5.80;;;4.07;;
79284;SDS011;68734;50.452;11.636;2023-04-25T01:55:27;4.97;;;3.67;;
79284;SDS011;68734;50.452;11.636;2023-04-25T01:57:52;6.82;;;4.03;;
79284;SDS011;68734;50.452;11.636;2023-04-25T02:00:18;5.57;;;4.15;;
79284;SDS011;68734;50.452;11.636;2023-04-25T02:02:44;5.68;;;3.90;;
79284;SDS011;68734;50.452;11.636;2023-04-25T02:05:09;7.22;;;4.38;;
79284;SDS011;68734;50.452;11.636;2023-04-25T02:07:35;5.65;;;3.70;;
79284;SDS011;68734;50.452;11.636;2023-04-25T02:10:00;6.68;;;3.88;;
79284;SDS011;68734;50.452;11.636;2023-04-25T02:12:28;6.30;;;4.10;;
79284;SDS011;68734;50.452;11.636;2023-04-25T02:14:53;6.55;;;4.03;;
79284;SDS011;68734;50.452;11.636;2023-04-25T02:17:19;6.32;;;4.18;;
79284;SDS011;68734;50.452;11.636;2023-04-25T02:19:46;5.70;;;3.70;;
79284;SDS011;68734;50.452;11.636;2023-04-25T02:22:12;4.22;;;3.13;;
79284;SDS011;68734;50.452;11.636;2023-04-25T02:24:37;5.28;;;3.10;;
79284;SDS011;68734;50.452;11.636;2023-04-25T02:27:05;5.40;;;3.20;;
79284;SDS011;68734;50.452;11.636;2023-04-25T02:29:33;5.32;;;3.15;;
79284;SDS011;68734;50.452;11.636;2023-04-25T02:31:58;5.32;;;3.65;;
79284;SDS011;68734;50.452;11.636;2023-04-25T02:34:24;5.00;;;2.97;;
79284;SDS011;68734;50.452;11.636;2023-04-25T02:36:49;4.50;;;2.17;;
79284;SDS011;68734;50.452;11.636;2023-04-25T02:39:20;3.78;;;2.90;;
79284;SDS011;68734;50.452;11.636;2023-04-25T02:41:50;3.97;;;3.03;;
79284;SDS011;68734;50.452;11.636;2023-04-25T02:44:15;3.90;;;2.50;;
79284;SDS011;68734;50.452;11.636;2023-04-25T02:46:43;3.28;;;2.03;;
79284;SDS011;68734;50.452;11.636;2023-04-25T02:49:11;2.90;;;1.95;;
79284;SDS011;68734;50.452;11.636;2023-04-25T02:51:36;2.17;;;1.60;;
79284;SDS011;68734;50.452;11.636;2023-04-25T02:54:02;2.47;;;1.55;;
79284;SDS011;68734;50.452;11.636;2023-04-25T02:56:28;2.20;;;1.27;;
79284;SDS011;68734;50.452;11.636;2023-04-25T02:58:56;2.30;;;1.63;;
79284;SDS011;68734;50.452;11.636;2023-04-25T03:01:21;2.78;;;1.23;;
79284;SDS011;68734;50.452;11.636;2023-04-25T03:03:46;2.20;;;1.52;;
79284;SDS011;68734;50.452;11.636;2023-04-25T03:06:12;2.20;;;1.30;;
79284;SDS011;68734;50.452;11.636;2023-04-25T03:08:37;2.40;;;1.55;;
79284;SDS011;68734;50.452;11.636;2023-04-25T03:11:03;2.60;;;1.73;;
79284;SDS011;68734;50.452;11.636;2023-04-25T03:13:28;2.85;;;1.50;;
79284;SDS011;68734;50.452;11.636;2023-04-25T03:15:55;2.08;;;1.42;;
79284;SDS011;68734;50.452;11.636;2023-04-25T03:18:20;2.25;;;1.42;;
79284;SDS011;68734;50.452;11.636;2023-04-25T03:20:45;1.90;;;1.63;;
79284;SDS011;68734;50.452;11.636;2023-04-25T03:23:11;2.75;;;1.52;;
79284;SDS011;68734;50.452;11.636;2023-04-25T03:25:39;2.45;;;1.73;;
79284;SDS011;68734;50.452;11.636;2023-04-25T03:28:05;2.70;;;1.63;;
79284;SDS011;68734;50.452;11.636;2023-04-25T03:30:31;3.17;;;2.00;;
79284;SDS011;68734;50.452;11.636;2023-04-25T03:32:56;2.75;;;2.00;;
79284;SDS011;68734;50.452;11.636;2023-04-25T03:35:21;2.85;;;1.90;;
79284;SDS011;68734;50.452;11.636;2023-04-25T03:37:50;2.42;;;1.70;;
79284;SDS011;68734;50.452;11.636;2023-04-25T03:40:15;3.40;;;1.80;;
79284;SDS011;68734;50.452;11.636;2023-04-25T03:42:43;3.08;;;2.40;;
79284;SDS011;68734;50.452;11.636;2023-04-25T03:45:13;3.03;;;2.38;;
79284;SDS011;68734;50.452;11.636;2023-04-25T03:47:39;3.25;;;2.13;;
79284;SDS011;68734;50.452;11.636;2023-04-25T03:50:04;3.60;;;2.42;;
79284;SDS011;68734;50.452;11.636;2023-04-25T03:52:30;3.30;;;2.70;;
79284;SDS011;68734;50.452;11.636;2023-04-25T03:54:56;4.43;;;2.53;;
79284;SDS011;68734;50.452;11.636;2023-04-25T03:57:21;3.30;;;2.42;;
79284;SDS011;68734;50.452;11.636;2023-04-25T03:59:46;3.35;;;2.28;;
79284;SDS011;68734;50.452;11.636;2023-04-25T04:02:12;3.33;;;2.47;;
79284;SDS011;68734;50.452;11.636;2023-04-25T04:04:37;3.80;;;2.80;;
79284;SDS011;68734;50.452;11.636;2023-04-25T04:07:03;4.80;;;3.40;;
79284;SDS011;68734;50.452;11.636;2023-04-25T04:09:28;5.93;;;3.83;;
79284;SDS011;68734;50.452;11.636;2023-04-25T04:11:56;7.80;;;4.68;;
79284;SDS011;68734;50.452;11.636;2023-04-25T04:14:22;6.20;;;3.80;;
79284;SDS011;68734;50.452;11.636;2023-04-25T04:16:47;5.45;;;3.83;;
79284;SDS011;68734;50.452;11.636;2023-04-25T04:19:12;4.32;;;3.33;;
79284;SDS011;68734;50.452;11.636;2023-04-25T04:21:38;5.25;;;3.40;;
79284;SDS011;68734;50.452;11.636;2023-04-25T04:24:03;4.72;;;3.17;;
79284;SDS011;68734;50.452;11.636;2023-04-25T04:26:31;5.15;;;3.60;;
79284;SDS011;68734;50.452;11.636;2023-04-25T04:28:59;5.05;;;3.92;;
79284;SDS011;68734;50.452;11.636;2023-04-25T04:31:25;5.78;;;3.08;;
79284;SDS011;68734;50.452;11.636;2023-04-25T04:33:50;4.25;;;3.03;;
79284;SDS011;68734;50.452;11.636;2023-04-25T04:36:16;6.97;;;2.95;;
79284;SDS011;68734;50.452;11.636;2023-04-25T04:38:45;3.80;;;2.63;;
79284;SDS011;68734;50.452;11.636;2023-04-25T04:41:10;4.25;;;2.63;;
79284;SDS011;68734;50.452;11.636;2023-04-25T04:43:36;5.85;;;3.28;;
79284;SDS011;68734;50.452;11.636;2023-04-25T04:46:04;5.13;;;3.28;;
79284;SDS011;68734;50.452;11.636;2023-04-25T04:48:33;4.00;;;2.97;;
79284;SDS011;68734;50.452;11.636;2023-04-25T04:51:01;3.63;;;2.85;;
79284;SDS011;68734;50.452;11.636;2023-04-25T04:53:26;4.63;;;3.40;;
79284;SDS011;68734;50.452;11.636;2023-04-25T04:55:52;8.07;;;3.70;;
79284;SDS011;68734;50.452;11.636;2023-04-25T04:58:20;4.90;;;3.47;;
79284;SDS011;68734;50.452;11.636;2023-04-25T05:00:45;4.32;;;3.30;;
79284;SDS011;68734;50.452;11.636;2023-04-25T05:03:11;5.32;;;3.08;;
79284;SDS011;68734;50.452;11.636;2023-04-25T05:05:39;4.88;;;3.38;;
79284;SDS011;68734;50.452;11.636;2023-04-25T05:08:08;4.25;;;3.20;;
79284;SDS011;68734;50.452;11.636;2023-04-25T05:10:33;5.55;;;3.45;;
79284;SDS011;68734;50.452;11.636;2023-04-25T05:12:58;3.88;;;3.03;;
79284;SDS011;68734;50.452;11.636;2023-04-25T05:15:24;5.82;;;4.20;;
79284;SDS011;68734;50.452;11.636;2023-04-25T05:17:49;6.93;;;4.47;;
79284;SDS011;68734;50.452;11.636;2023-04-25T05:20:15;5.40;;;4.28;;
79284;SDS011;68734;50.452;11.636;2023-04-25T05:22:40;5.57;;;3.95;;
79284;SDS011;68734;50.452;11.636;2023-04-25T05:25:08;4.63;;;3.50;;
79284;SDS011;68734;50.452;11.636;2023-04-25T05:27:34;5.30;;;3.40;;
79284;SDS011;68734;50.452;11.636;2023-04-25T05:30:00;4.38;;;3.22;;
79284;SDS011;68734;50.452;11.636;2023-04-25T05:32:26;4.43;;;3.38;;
79284;SDS011;68734;50.452;11.636;2023-04-25T05:35:00;3.90;;;2.90;;
79284;SDS011;68734;50.452;11.636;2023-04-25T05:37:35;5.63;;;3.80;;
79284;SDS011;68734;50.452;11.636;2023-04-25T05:40:01;3.08;;;2.78;;
79284;SDS011;68734;50.452;11.636;2023-04-25T05:42:31;4.88;;;3.40;;
79284;SDS011;68734;50.452;11.636;2023-04-25T05:44:56;4.25;;;3.03;;
79284;SDS011;68734;50.452;11.636;2023-04-25T05:47:21;3.40;;;2.88;;
79284;SDS011;68734;50.452;11.636;2023-04-25T05:49:49;3.15;;;2.47;;
79284;SDS011;68734;50.452;11.636;2023-04-25T05:52:17;4.45;;;2.70;;
79284;SDS011;68734;50.452;11.636;2023-04-25T05:54:43;4.30;;;2.38;;
79284;SDS011;68734;50.452;11.636;2023-04-25T05:57:08;2.92;;;2.20;;
79284;SDS011;68734;50.452;11.636;2023-04-25T05:59:44;5.75;;;2.42;;
79284;SDS011;68734;50.452;11.636;2023-04-25T06:02:10;3.60;;;2.33;;
79284;SDS011;68734;50.452;11.636;2023-04-25T06:04:35;2.47;;;2.10;;
79284;SDS011;68734;50.452;11.636;2023-04-25T06:07:01;2.40;;;2.20;;
79284;SDS011;68734;50.452;11.636;2023-04-25T06:09:29;3.08;;;2.20;;
79284;SDS011;68734;50.452;11.636;2023-04-25T06:11:54;4.18;;;2.38;;
79284;SDS011;68734;50.452;11.636;2023-04-25T06:14:20;3.17;;;2.70;;
79284;SDS011;68734;50.452;11.636;2023-04-25T06:16:45;4.00;;;2.72;;
79284;SDS011;68734;50.452;11.636;2023-04-25T06:19:14;4.80;;;2.72;;
79284;SDS011;68734;50.452;11.636;2023-04-25T06:21:44;2.83;;;1.92;;
79284;SDS011;68734;50.452;11.636;2023-04-25T06:24:09;2.85;;;2.03;;
79284;SDS011;68734;50.452;11.636;2023-04-25T06:26:35;4.07;;;2.08;;
79284;SDS011;68734;50.452;11.636;2023-04-25T06:29:01;3.35;;;2.10;;
79284;SDS011;68734;50.452;11.636;2023-04-25T06:31:26;3.10;;;2.28;;
79284;SDS011;68734;50.452;11.636;2023-04-25T06:33:53;2.67;;;1.92;;
79284;SDS011;68734;50.452;11.636;2023-04-25T06:36:20;2.50;;;2.15;;
79284;SDS011;68734;50.452;11.636;2023-04-25T06:38:50;2.88;;;2.47;;
79284;SDS011;68734;50.452;11.636;2023-04-25T06:41:15;3.25;;;2.30;;
79284;SDS011;68734;50.452;11.636;2023-04-25T06:43:43;4.13;;;2.60;;
79284;SDS011;68734;50.452;11.636;2023-04-25T06:46:09;3.38;;;2.38;;
79284;SDS011;68734;50.452;11.636;2023-04-25T06:48:35;2.58;;;1.90;;
79284;SDS011;68734;50.452;11.636;2023-04-25T06:51:00;2.83;;;1.80;;
79284;SDS011;68734;50.452;11.636;2023-04-25T06:53:25;3.40;;;2.28;;
79284;SDS011;68734;50.452;11.636;2023-04-25T06:55:51;3.10;;;2.05;;
79284;SDS011;68734;50.452;11.636;2023-04-25T06:58:17;3.67;;;2.13;;
79284;SDS011;68734;50.452;11.636;2023-04-25T07:00:42;4.57;;;2.50;;
79284;SDS011;68734;50.452;11.636;2023-04-25T07:03:08;3.40;;;2.40;;
79284;SDS011;68734;50.452;11.636;2023-04-25T07:05:33;3.13;;;2.22;;
79284;SDS011;68734;50.452;11.636;2023-04-25T07:07:58;3.92;;;2.30;;
79284;SDS011;68734;50.452;11.636;2023-04-25T07:10:25;3.30;;;2.03;;
79284;SDS011;68734;50.452;11.636;2023-04-25T07:12:52;4.25;;;2.13;;
79284;SDS011;68734;50.452;11.636;2023-04-25T07:15:20;3.90;;;2.00;;
79284;SDS011;68734;50.452;11.636;2023-04-25T07:17:45;4.45;;;1.75;;
79284;SDS011;68734;50.452;11.636;2023-04-25T07:20:13;2.70;;;2.08;;
79284;SDS011;68734;50.452;11.636;2023-04-25T07:22:39;4.25;;;2.28;;
79284;SDS011;68734;50.452;11.636;2023-04-25T07:25:04;2.08;;;1.48;;
79284;SDS011;68734;50.452;11.636;2023-04-25T07:27:30;4.75;;;2.30;;
79284;SDS011;68734;50.452;11.636;2023-04-25T07:29:59;3.33;;;1.92;;
79284;SDS011;68734;50.452;11.636;2023-04-25T07:32:24;5.93;;;2.13;;
79284;SDS011;68734;50.452;11.636;2023-04-25T07:34:50;4.82;;;2.40;;
79284;SDS011;68734;50.452;11.636;2023-04-25T07:37:16;2.63;;;2.05;;
79284;SDS011;68734;50.452;11.636;2023-04-25T07:39:43;3.13;;;2.03;;
79284;SDS011;68734;50.452;11.636;2023-04-25T07:42:11;3.13;;;1.90;;
79284;SDS011;68734;50.452;11.636;2023-04-25T07:44:39;1.90;;;1.42;;
79284;SDS011;68734;50.452;11.636;2023-04-25T07:47:05;2.70;;;1.90;;
79284;SDS011;68734;50.452;11.636;2023-04-25T07:49:34;2.33;;;1.58;;
79284;SDS011;68734;50.452;11.636;2023-04-25T07:52:01;2.58;;;1.10;;
79284;SDS011;68734;50.452;11.636;2023-04-25T07:54:27;2.60;;;1.35;;
79284;SDS011;68734;50.452;11.636;2023-04-25T07:56:52;2.47;;;1.25;;
79284;SDS011;68734;50.452;11.636;2023-04-25T07:59:18;6.07;;;1.55;;
79284;SDS011;68734;50.452;11.636;2023-04-25T08:01:43;4.68;;;1.50;;
79284;SDS011;68734;50.452;11.636;2023-04-25T08:04:09;3.05;;;1.45;;
79284;SDS011;68734;50.452;11.636;2023-04-25T08:06:34;4.25;;;1.80;;
79284;SDS011;68734;50.452;11.636;2023-04-25T08:09:01;3.80;;;2.03;;
79284;SDS011;68734;50.452;11.636;2023-04-25T08:11:26;5.00;;;1.85;;
79284;SDS011;68734;50.452;11.636;2023-04-25T08:13:52;2.17;;;1.25;;
79284;SDS011;68734;50.452;11.636;2023-04-25T08:16:17;3.15;;;1.42;;
79284;SDS011;68734;50.452;11.636;2023-04-25T08:18:42;4.18;;;1.73;;
79284;SDS011;68734;50.452;11.636;2023-04-25T08:21:08;1.45;;;1.13;;
79284;SDS011;68734;50.452;11.636;2023-04-25T08:23:36;4.90;;;2.10;;
79284;SDS011;68734;50.452;11.636;2023-04-25T08:26:06;6.20;;;2.20;;
79284;SDS011;68734;50.452;11.636;2023-04-25T08:28:32;2.53;;;1.95;;
79284;SDS011;68734;50.452;11.636;2023-04-25T08:30:57;3.60;;;1.77;;
79284;SDS011;68734;50.452;11.636;2023-04-25T08:33:23;4.05;;;2.10;;
79284;SDS011;68734;50.452;11.636;2023-04-25T08:35:48;2.83;;;1.70;;
79284;SDS011;68734;50.452;11.636;2023-04-25T08:38:17;2.60;;;1.17;;
79284;SDS011;68734;50.452;11.636;2023-04-25T08:40:43;3.22;;;1.60;;
79284;SDS011;68734;50.452;11.636;2023-04-25T08:43:09;3.33;;;1.30;;
79284;SDS011;68734;50.452;11.636;2023-04-25T08:45:40;3.22;;;1.17;;
79284;SDS011;68734;50.452;11.636;2023-04-25T08:48:16;2.65;;;1.48;;
79284;SDS011;68734;50.452;11.636;2023-04-25T08:50:48;4.18;;;1.63;;
79284;SDS011;68734;50.452;11.636;2023-04-25T08:53:21;2.88;;;1.40;;
79284;SDS011;68734;50.452;11.636;2023-04-25T08:55:50;2.40;;;1.13;;
79284;SDS011;68734;50.452;11.636;2023-04-25T08:58:16;3.65;;;1.73;;
79284;SDS011;68734;50.452;11.636;2023-04-25T09:00:43;6.85;;;1.70;;
79284;SDS011;68734;50.452;11.636;2023-04-25T09:03:11;2.33;;;1.77;;
79284;SDS011;68734;50.452;11.636;2023-04-25T09:05:37;3.17;;;2.03;;
79284;SDS011;68734;50.452;11.636;2023-04-25T09:08:07;3.03;;;2.35;;
79284;SDS011;68734;50.452;11.636;2023-04-25T09:10:33;3.22;;;1.70;;
79284;SDS011;68734;50.452;11.636;2023-04-25T09:13:06;5.38;;;1.63;;
79284;SDS011;68734;50.452;11.636;2023-04-25T09:18:52;2.92;;;1.65;;
79284;SDS011;68734;50.452;11.636;2023-04-25T09:21:11;1.45;;;1.02;;
79284;SDS011;68734;50.452;11.636;2023-04-25T09:26:13;1.40;;;0.90;;
79284;SDS011;68734;50.452;11.636;2023-04-25T09:28:40;1.13;;;1.00;;
79284;SDS011;68734;50.452;11.636;2023-04-25T09:31:09;1.23;;;1.00;;
79284;SDS011;68734;50.452;11.636;2023-04-25T09:33:35;3.35;;;1.13;;
79284;SDS011;68734;50.452;11.636;2023-04-25T09:36:05;2.60;;;1.05;;
79284;SDS011;68734;50.452;11.636;2023-04-25T09:38:32;1.85;;;1.00;;
79284;SDS011;68734;50.452;11.636;2023-04-25T09:41:08;3.35;;;1.30;;
79284;SDS011;68734;50.452;11.636;2023-04-25T09:43:35;1.80;;;1.20;;
79284;SDS011;68734;50.452;11.636;2023-04-25T09:46:07;2.95;;;1.35;;
79284;SDS011;68734;50.452;11.636;2023-04-25T09:48:34;3.72;;;1.52;;
79284;SDS011;68734;50.452;11.636;2023-04-25T09:53:41;3.88;;;1.58;;
79284;SDS011;68734;50.452;11.636;2023-04-25T09:56:15;2.55;;;1.42;;
79284;SDS011;68734;50.452;11.636;2023-04-25T09:58:44;2.10;;;1.38;;
79284;SDS011;68734;50.452;11.636;2023-04-25T10:01:12;2.75;;;1.52;;
79284;SDS011;68734;50.452;11.636;2023-04-25T10:03:38;2.95;;;1.50;;
79284;SDS011;68734;50.452;11.636;2023-04-25T10:06:07;1.98;;;1.35;;
79284;SDS011;68734;50.452;11.636;2023-04-25T10:08:37;2.10;;;1.40;;
79284;SDS011;68734;50.452;11.636;2023-04-25T10:11:06;1.90;;;1.30;;
79284;SDS011;68734;50.452;11.636;2023-04-25T10:13:33;2.95;;;2.08;;
79284;SDS011;68734;50.452;11.636;2023-04-25T10:16:00;1.60;;;1.10;;
79284;SDS011;68734;50.452;11.636;2023-04-25T10:18:28;1.83;;;1.13;;
79284;SDS011;68734;50.452;11.636;2023-04-25T10:20:54;2.17;;;1.30;;
79284;SDS011;68734;50.452;11.636;2023-04-25T10:23:22;2.13;;;1.20;;
79284;SDS011;68734;50.452;11.636;2023-04-25T10:25:49;1.58;;;0.98;;
79284;SDS011;68734;50.452;11.636;2023-04-25T10:28:16;3.25;;;1.30;;
79284;SDS011;68734;50.452;11.636;2023-04-25T10:30:57;3.65;;;1.55;;
79284;SDS011;68734;50.452;11.636;2023-04-25T10:33:38;1.85;;;1.15;;
79284;SDS011;68734;50.452;11.636;2023-04-25T10:36:15;2.15;;;1.20;;
79284;SDS011;68734;50.452;11.636;2023-04-25T10:38:43;1.90;;;1.00;;
79284;SDS011;68734;50.452;11.636;2023-04-25T10:41:10;2.45;;;1.60;;
79284;SDS011;68734;50.452;11.636;2023-04-25T10:43:38;2.47;;;1.67;;
79284;SDS011;68734;50.452;11.636;2023-04-25T10:46:17;3.65;;;1.50;;
79284;SDS011;68734;50.452;11.636;2023-04-25T10:48:50;2.00;;;1.42;;
79284;SDS011;68734;50.452;11.636;2023-04-25T10:54:08;1.80;;;1.38;;
79284;SDS011;68734;50.452;11.636;2023-04-25T10:56:37;3.20;;;1.58;;
79284;SDS011;68734;50.452;11.636;2023-04-25T10:59:06;3.97;;;2.15;;
79284;SDS011;68734;50.452;11.636;2023-04-25T11:01:45;4.50;;;1.92;;
79284;SDS011;68734;50.452;11.636;2023-04-25T11:09:32;2.47;;;1.45;;
79284;SDS011;68734;50.452;11.636;2023-04-25T11:12:03;2.28;;;1.40;;
79284;SDS011;68734;50.452;11.636;2023-04-25T11:14:30;2.53;;;1.20;;
79284;SDS011;68734;50.452;11.636;2023-04-25T11:16:55;2.83;;;1.95;;
79284;SDS011;68734;50.452;11.636;2023-04-25T11:19:25;1.98;;;1.70;;
79284;SDS011;68734;50.452;11.636;2023-04-25T11:21:57;2.92;;;1.38;;
79284;SDS011;68734;50.452;11.636;2023-04-25T11:26:57;2.97;;;1.90;;
79284;SDS011;68734;50.452;11.636;2023-04-25T11:29:26;2.00;;;1.20;;
79284;SDS011;68734;50.452;11.636;2023-04-25T11:31:54;1.60;;;1.13;;
79284;SDS011;68734;50.452;11.636;2023-04-25T11:34:22;2.90;;;1.17;;
79284;SDS011;68734;50.452;11.636;2023-04-25T11:36:49;2.83;;;1.13;;
79284;SDS011;68734;50.452;11.636;2023-04-25T11:39:15;2.53;;;1.00;;
79284;SDS011;68734;50.452;11.636;2023-04-25T11:41:41;1.45;;;0.93;;
79284;SDS011;68734;50.452;11.636;2023-04-25T11:44:09;1.00;;;0.80;;
79284;SDS011;68734;50.452;11.636;2023-04-25T11:46:34;2.20;;;0.90;;
79284;SDS011;68734;50.452;11.636;2023-04-25T11:49:00;0.68;;;0.50;;
79284;SDS011;68734;50.452;11.636;2023-04-25T11:51:25;3.63;;;1.17;;
79284;SDS011;68734;50.452;11.636;2023-04-25T11:53:51;16.27;;;7.70;;
79284;SDS011;68734;50.452;11.636;2023-04-25T11:56:16;1.15;;;0.73;;
79284;SDS011;68734;50.452;11.636;2023-04-25T11:59:00;1.02;;;0.65;;
79284;SDS011;68734;50.452;11.636;2023-04-25T12:01:36;2.28;;;1.00;;
79284;SDS011;68734;50.452;11.636;2023-04-25T12:04:13;2.60;;;1.10;;
79284;SDS011;68734;50.452;11.636;2023-04-25T12:06:46;1.27;;;0.82;;
79284;SDS011;68734;50.452;11.636;2023-04-25T12:09:14;1.83;;;1.20;;
79284;SDS011;68734;50.452;11.636;2023-04-25T12:11:46;2.00;;;1.30;;
79284;SDS011;68734;50.452;11.636;2023-04-25T12:14:20;1.95;;;1.10;;
79284;SDS011;68734;50.452;11.636;2023-04-25T12:16:51;3.58;;;1.40;;
79284;SDS011;68734;50.452;11.636;2023-04-25T12:19:17;1.75;;;1.10;;
79284;SDS011;68734;50.452;11.636;2023-04-25T12:21:43;4.35;;;1.98;;
79284;SDS011;68734;50.452;11.636;2023-04-25T12:26:58;1.48;;;0.98;;
79284;SDS011;68734;50.452;11.636;2023-04-25T12:29:25;2.63;;;1.48;;
79284;SDS011;68734;50.452;11.636;2023-04-25T12:31:56;1.90;;;1.33;;
79284;SDS011;68734;50.452;11.636;2023-04-25T12:34:26;1.42;;;0.88;;
79284;SDS011;68734;50.452;11.636;2023-04-25T12:36:52;2.58;;;1.50;;
79284;SDS011;68734;50.452;11.636;2023-04-25T12:39:18;2.53;;;1.50;;
79284;SDS011;68734;50.452;11.636;2023-04-25T12:41:48;2.38;;;1.33;;
79284;SDS011;68734;50.452;11.636;2023-04-25T12:44:15;2.30;;;1.42;;
79284;SDS011;68734;50.452;11.636;2023-04-25T12:46:41;3.33;;;1.30;;
79284;SDS011;68734;50.452;11.636;2023-04-25T12:49:07;2.70;;;1.48;;
79284;SDS011;68734;50.452;11.636;2023-04-25T12:51:36;2.40;;;1.23;;
79284;SDS011;68734;50.452;11.636;2023-04-25T12:54:02;2.70;;;1.02;;
79284;SDS011;68734;50.452;11.636;2023-04-25T12:56:29;4.45;;;1.33;;
79284;SDS011;68734;50.452;11.636;2023-04-25T12:58:56;2.20;;;1.20;;
79284;SDS011;68734;50.452;11.636;2023-04-25T13:01:21;4.00;;;1.70;;
79284;SDS011;68734;50.452;11.636;2023-04-25T13:03:47;2.30;;;1.00;;
79284;SDS011;68734;50.452;11.636;2023-04-25T13:06:14;2.85;;;1.20;;
79284;SDS011;68734;50.452;11.636;2023-04-25T13:08:40;2.30;;;1.70;;
79284;SDS011;68734;50.452;11.636;2023-04-25T13:11:06;2.42;;;1.20;;
79284;SDS011;68734;50.452;11.636;2023-04-25T13:13:32;4.00;;;1.50;;
79284;SDS011;68734;50.452;11.636;2023-04-25T13:15:59;3.25;;;1.30;;
79284;SDS011;68734;50.452;11.636;2023-04-25T13:18:25;7.38;;;1.25;;
79284;SDS011;68734;50.452;11.636;2023-04-25T13:20:53;3.60;;;1.40;;
79284;SDS011;68734;50.452;11.636;2023-04-25T13:23:19;3.97;;;1.65;;
79284;SDS011;68734;50.452;11.636;2023-04-25T13:25:48;3.28;;;1.30;;
79284;SDS011;68734;50.452;11.636;2023-04-25T13:28:13;2.67;;;1.33;;
79284;SDS011;68734;50.452;11.636;2023-04-25T13:30:42;2.15;;;1.30;;
79284;SDS011;68734;50.452;11.636;2023-04-25T13:33:07;2.83;;;2.42;;
79284;SDS011;68734;50.452;11.636;2023-04-25T13:35:36;3.60;;;1.67;;
79284;SDS011;68734;50.452;11.636;2023-04-25T13:38:06;5.30;;;1.73;;
79284;SDS011;68734;50.452;11.636;2023-04-25T13:40:32;3.70;;;1.90;;
79284;SDS011;68734;50.452;11.636;2023-04-25T13:42:58;2.10;;;1.45;;
79284;SDS011;68734;50.452;11.636;2023-04-25T13:45:24;3.78;;;1.35;;
79284;SDS011;68734;50.452;11.636;2023-04-25T13:47:50;5.13;;;1.80;;
79284;SDS011;68734;50.452;11.636;2023-04-25T13:50:16;2.85;;;1.40;;
79284;SDS011;68734;50.452;11.636;2023-04-25T13:52:41;1.77;;;1.30;;
79284;SDS011;68734;50.452;11.636;2023-04-25T13:55:07;4.70;;;1.33;;
79284;SDS011;68734;50.452;11.636;2023-04-25T13:57:33;5.60;;;1.92;;
79284;SDS011;68734;50.452;11.636;2023-04-25T14:00:00;2.78;;;1.20;;
79284;SDS011;68734;50.452;11.636;2023-04-25T14:02:29;3.25;;;1.38;;
79284;SDS011;68734;50.452;11.636;2023-04-25T14:04:55;5.70;;;1.55;;
79284;SDS011;68734;50.452;11.636;2023-04-25T14:07:23;3.47;;;1.30;;
79284;SDS011;68734;50.452;11.636;2023-04-25T14:09:49;1.80;;;1.20;;
79284;SDS011;68734;50.452;11.636;2023-04-25T14:12:15;2.90;;;1.30;;
79284;SDS011;68734;50.452;11.636;2023-04-25T14:14:43;3.88;;;1.50;;
79284;SDS011;68734;50.452;11.636;2023-04-25T14:17:09;3.83;;;1.60;;
79284;SDS011;68734;50.452;11.636;2023-04-25T14:19:34;2.53;;;1.20;;
79284;SDS011;68734;50.452;11.636;2023-04-25T14:22:00;2.13;;;1.30;;
79284;SDS011;68734;50.452;11.636;2023-04-25T14:24:28;3.97;;;1.70;;
79284;SDS011;68734;50.452;11.636;2023-04-25T14:26:53;2.30;;;1.05;;
79284;SDS011;68734;50.452;11.636;2023-04-25T14:29:19;4.32;;;1.25;;
79284;SDS011;68734;50.452;11.636;2023-04-25T14:31:44;4.15;;;1.20;;
79284;SDS011;68734;50.452;11.636;2023-04-25T14:34:10;2.38;;;1.38;;
79284;SDS011;68734;50.452;11.636;2023-04-25T14:36:36;3.47;;;1.65;;
79284;SDS011;68734;50.452;11.636;2023-04-25T14:39:01;4.88;;;2.40;;
79284;SDS011;68734;50.452;11.636;2023-04-25T14:41:35;4.65;;;2.15;;
79284;SDS011;68734;50.452;11.636;2023-04-25T14:44:00;4.28;;;1.75;;
79284;SDS011;68734;50.452;11.636;2023-04-25T14:46:26;5.13;;;2.65;;
79284;SDS011;68734;50.452;11.636;2023-04-25T14:48:51;4.10;;;1.70;;
79284;SDS011;68734;50.452;11.636;2023-04-25T14:51:19;3.78;;;1.45;;
79284;SDS011;68734;50.452;11.636;2023-04-25T14:53:47;5.28;;;1.73;;